sensor_id;sensor_type;location;lat;lon;timestamp;P1;durP1;ratioP1;P2;durP2;ratioP2
65737;SDS011;52478;51.844;6.582;2023-06-22T00:01:54;7.35;;;4.30;;
65737;SDS011;52478;51.844;6.582;2023-06-22T00:04:21;8.43;;;4.57;;
65737;SDS011;52478;51.844;6.582;2023-06-22T00:06:47;8.23;;;3.90;;
65737;SDS011;52478;51.844;6.582;2023-06-22T00:09:14;8.30;;;4.43;;
65737;SDS011;52478;51.844;6.582;2023-06-22T00:11:40;7.50;;;4.13;;
65737;SDS011;52478;51.844;6.582;2023-06-22T00:14:06;7.30;;;4.15;;
65737;SDS011;52478;51.844;6.582;2023-06-22T00:16:33;7.07;;;3.60;;
65737;SDS011;52478;51.844;6.582;2023-06-22T00:19:01;7.22;;;3.95;;
65737;SDS011;52478;51.844;6.582;2023-06-22T00:21:28;8.20;;;4.32;;
65737;SDS011;52478;51.844;6.582;2023-06-22T00:23:55;7.80;;;3.97;;
65737;SDS011;52478;51.844;6.582;2023-06-22T00:26:22;7.70;;;3.92;;
65737;SDS011;52478;51.844;6.582;2023-06-22T00:28:49;9.07;;;4.15;;
65737;SDS011;52478;51.844;6.582;2023-06-22T00:31:16;7.38;;;4.15;;
65737;SDS011;52478;51.844;6.582;2023-06-22T00:33:42;7.60;;;3.80;;
65737;SDS011;52478;51.844;6.582;2023-06-22T00:36:10;9.05;;;4.65;;
65737;SDS011;52478;51.844;6.582;2023-06-22T00:38:38;7.03;;;4.28;;
65737;SDS011;52478;51.844;6.582;2023-06-22T00:41:05;6.90;;;3.88;;
65737;SDS011;52478;51.844;6.582;2023-06-22T00:43:31;7.35;;;4.20;;
65737;SDS011;52478;51.844;6.582;2023-06-22T00:45:58;7.25;;;3.70;;
65737;SDS011;52478;51.844;6.582;2023-06-22T00:48:24;7.88;;;4.00;;
65737;SDS011;52478;51.844;6.582;2023-06-22T00:50:51;7.75;;;4.13;;
65737;SDS011;52478;51.844;6.582;2023-06-22T00:53:20;7.88;;;3.78;;
65737;SDS011;52478;51.844;6.582;2023-06-22T00:55:46;9.07;;;4.10;;
65737;SDS011;52478;51.844;6.582;2023-06-22T00:58:16;8.27;;;4.20;;
65737;SDS011;52478;51.844;6.582;2023-06-22T01:00:46;7.25;;;3.78;;
65737;SDS011;52478;51.844;6.582;2023-06-22T01:03:13;8.23;;;4.40;;
65737;SDS011;52478;51.844;6.582;2023-06-22T01:05:41;8.18;;;4.00;;
65737;SDS011;52478;51.844;6.582;2023-06-22T01:08:15;8.27;;;4.10;;
65737;SDS011;52478;51.844;6.582;2023-06-22T01:10:50;8.82;;;4.10;;
65737;SDS011;52478;51.844;6.582;2023-06-22T01:13:23;7.35;;;4.43;;
65737;SDS011;52478;51.844;6.582;2023-06-22T01:15:55;7.57;;;4.30;;
65737;SDS011;52478;51.844;6.582;2023-06-22T01:18:25;7.18;;;4.32;;
65737;SDS011;52478;51.844;6.582;2023-06-22T01:20:56;8.93;;;4.35;;
65737;SDS011;52478;51.844;6.582;2023-06-22T01:23:27;7.10;;;4.05;;
65737;SDS011;52478;51.844;6.582;2023-06-22T01:26:02;7.82;;;4.22;;
65737;SDS011;52478;51.844;6.582;2023-06-22T01:28:39;7.55;;;4.07;;
65737;SDS011;52478;51.844;6.582;2023-06-22T01:31:08;8.20;;;4.30;;
65737;SDS011;52478;51.844;6.582;2023-06-22T01:33:39;8.18;;;4.40;;
65737;SDS011;52478;51.844;6.582;2023-06-22T01:36:07;7.57;;;4.50;;
65737;SDS011;52478;51.844;6.582;2023-06-22T01:38:35;8.27;;;4.40;;
65737;SDS011;52478;51.844;6.582;2023-06-22T01:41:03;7.75;;;4.35;;
65737;SDS011;52478;51.844;6.582;2023-06-22T01:43:30;7.57;;;4.35;;
65737;SDS011;52478;51.844;6.582;2023-06-22T01:46:00;7.00;;;4.05;;
65737;SDS011;52478;51.844;6.582;2023-06-22T01:48:27;7.53;;;4.28;;
65737;SDS011;52478;51.844;6.582;2023-06-22T01:50:54;8.00;;;4.47;;
65737;SDS011;52478;51.844;6.582;2023-06-22T01:53:21;7.05;;;3.95;;
65737;SDS011;52478;51.844;6.582;2023-06-22T01:55:48;7.65;;;4.35;;
65737;SDS011;52478;51.844;6.582;2023-06-22T01:58:15;7.03;;;4.00;;
65737;SDS011;52478;51.844;6.582;2023-06-22T02:00:50;7.45;;;3.95;;
65737;SDS011;52478;51.844;6.582;2023-06-22T02:03:25;7.07;;;3.95;;
65737;SDS011;52478;51.844;6.582;2023-06-22T02:08:25;8.30;;;4.15;;
65737;SDS011;52478;51.844;6.582;2023-06-22T02:10:54;6.75;;;3.85;;
65737;SDS011;52478;51.844;6.582;2023-06-22T02:13:23;7.88;;;4.53;;
65737;SDS011;52478;51.844;6.582;2023-06-22T02:15:50;6.80;;;3.80;;
65737;SDS011;52478;51.844;6.582;2023-06-22T02:18:17;8.82;;;4.68;;
65737;SDS011;52478;51.844;6.582;2023-06-22T02:20:46;8.02;;;4.40;;
65737;SDS011;52478;51.844;6.582;2023-06-22T02:23:13;7.68;;;4.43;;
65737;SDS011;52478;51.844;6.582;2023-06-22T02:25:39;7.97;;;4.60;;
65737;SDS011;52478;51.844;6.582;2023-06-22T02:28:09;6.88;;;3.97;;
65737;SDS011;52478;51.844;6.582;2023-06-22T02:30:35;7.65;;;4.25;;
65737;SDS011;52478;51.844;6.582;2023-06-22T02:33:02;7.50;;;4.30;;
65737;SDS011;52478;51.844;6.582;2023-06-22T02:35:28;7.75;;;4.97;;
65737;SDS011;52478;51.844;6.582;2023-06-22T02:37:57;7.88;;;4.40;;
65737;SDS011;52478;51.844;6.582;2023-06-22T02:40:25;7.30;;;4.50;;
65737;SDS011;52478;51.844;6.582;2023-06-22T02:42:51;8.10;;;4.45;;
65737;SDS011;52478;51.844;6.582;2023-06-22T02:45:18;6.78;;;3.90;;
65737;SDS011;52478;51.844;6.582;2023-06-22T02:47:44;7.75;;;4.63;;
65737;SDS011;52478;51.844;6.582;2023-06-22T02:50:12;7.57;;;4.18;;
65737;SDS011;52478;51.844;6.582;2023-06-22T02:52:39;7.93;;;4.50;;
65737;SDS011;52478;51.844;6.582;2023-06-22T02:55:07;9.00;;;4.47;;
65737;SDS011;52478;51.844;6.582;2023-06-22T02:57:34;7.72;;;4.70;;
65737;SDS011;52478;51.844;6.582;2023-06-22T03:00:02;7.50;;;4.20;;
65737;SDS011;52478;51.844;6.582;2023-06-22T03:02:41;7.85;;;4.28;;
65737;SDS011;52478;51.844;6.582;2023-06-22T03:05:08;8.65;;;4.55;;
65737;SDS011;52478;51.844;6.582;2023-06-22T03:07:38;8.10;;;4.70;;
65737;SDS011;52478;51.844;6.582;2023-06-22T03:10:07;6.65;;;3.92;;
65737;SDS011;52478;51.844;6.582;2023-06-22T03:12:34;7.25;;;4.80;;
65737;SDS011;52478;51.844;6.582;2023-06-22T03:15:00;9.63;;;4.93;;
65737;SDS011;52478;51.844;6.582;2023-06-22T03:17:27;7.78;;;4.68;;
65737;SDS011;52478;51.844;6.582;2023-06-22T03:19:53;7.80;;;4.78;;
65737;SDS011;52478;51.844;6.582;2023-06-22T03:22:20;8.45;;;4.72;;
65737;SDS011;52478;51.844;6.582;2023-06-22T03:24:46;7.93;;;4.47;;
65737;SDS011;52478;51.844;6.582;2023-06-22T03:27:14;7.93;;;4.40;;
65737;SDS011;52478;51.844;6.582;2023-06-22T03:29:40;8.85;;;5.45;;
65737;SDS011;52478;51.844;6.582;2023-06-22T03:32:07;7.60;;;4.50;;
65737;SDS011;52478;51.844;6.582;2023-06-22T03:34:33;7.32;;;4.10;;
65737;SDS011;52478;51.844;6.582;2023-06-22T03:37:02;7.55;;;4.82;;
65737;SDS011;52478;51.844;6.582;2023-06-22T03:39:29;8.18;;;4.88;;
65737;SDS011;52478;51.844;6.582;2023-06-22T03:41:55;7.80;;;4.53;;
65737;SDS011;52478;51.844;6.582;2023-06-22T03:44:23;7.28;;;4.40;;
65737;SDS011;52478;51.844;6.582;2023-06-22T03:46:49;8.20;;;4.95;;
65737;SDS011;52478;51.844;6.582;2023-06-22T03:49:16;7.97;;;4.80;;
65737;SDS011;52478;51.844;6.582;2023-06-22T03:51:42;8.02;;;4.55;;
65737;SDS011;52478;51.844;6.582;2023-06-22T03:54:09;8.10;;;5.10;;
65737;SDS011;52478;51.844;6.582;2023-06-22T03:56:35;8.88;;;4.85;;
65737;SDS011;52478;51.844;6.582;2023-06-22T03:59:02;8.02;;;5.30;;
65737;SDS011;52478;51.844;6.582;2023-06-22T04:01:29;7.35;;;4.50;;
65737;SDS011;52478;51.844;6.582;2023-06-22T04:03:56;7.57;;;5.47;;
65737;SDS011;52478;51.844;6.582;2023-06-22T04:06:22;7.80;;;4.85;;
65737;SDS011;52478;51.844;6.582;2023-06-22T04:08:49;7.32;;;4.85;;
65737;SDS011;52478;51.844;6.582;2023-06-22T04:11:16;8.80;;;4.93;;
65737;SDS011;52478;51.844;6.582;2023-06-22T04:13:42;8.63;;;4.75;;
65737;SDS011;52478;51.844;6.582;2023-06-22T04:16:09;8.05;;;5.13;;
65737;SDS011;52478;51.844;6.582;2023-06-22T04:18:37;7.85;;;5.05;;
65737;SDS011;52478;51.844;6.582;2023-06-22T04:21:03;8.65;;;5.63;;
65737;SDS011;52478;51.844;6.582;2023-06-22T04:23:30;8.77;;;4.93;;
65737;SDS011;52478;51.844;6.582;2023-06-22T04:25:57;8.05;;;4.82;;
65737;SDS011;52478;51.844;6.582;2023-06-22T04:28:23;7.35;;;4.90;;
65737;SDS011;52478;51.844;6.582;2023-06-22T04:30:50;8.45;;;4.78;;
65737;SDS011;52478;51.844;6.582;2023-06-22T04:33:16;7.45;;;4.80;;
65737;SDS011;52478;51.844;6.582;2023-06-22T04:35:45;7.88;;;5.15;;
65737;SDS011;52478;51.844;6.582;2023-06-22T04:38:12;8.45;;;5.28;;
65737;SDS011;52478;51.844;6.582;2023-06-22T04:43:05;7.88;;;4.85;;
65737;SDS011;52478;51.844;6.582;2023-06-22T04:45:32;8.20;;;4.75;;
65737;SDS011;52478;51.844;6.582;2023-06-22T04:48:00;8.32;;;4.88;;
65737;SDS011;52478;51.844;6.582;2023-06-22T04:50:27;9.20;;;5.00;;
65737;SDS011;52478;51.844;6.582;2023-06-22T04:52:55;9.38;;;5.18;;
65737;SDS011;52478;51.844;6.582;2023-06-22T04:55:21;8.18;;;5.07;;
65737;SDS011;52478;51.844;6.582;2023-06-22T04:57:48;8.05;;;5.15;;
65737;SDS011;52478;51.844;6.582;2023-06-22T05:02:42;8.43;;;4.90;;
65737;SDS011;52478;51.844;6.582;2023-06-22T05:05:10;8.20;;;5.05;;
65737;SDS011;52478;51.844;6.582;2023-06-22T05:07:38;8.10;;;4.95;;
65737;SDS011;52478;51.844;6.582;2023-06-22T05:10:09;8.68;;;5.18;;
65737;SDS011;52478;51.844;6.582;2023-06-22T05:12:37;8.25;;;4.70;;
65737;SDS011;52478;51.844;6.582;2023-06-22T05:15:04;8.32;;;4.55;;
65737;SDS011;52478;51.844;6.582;2023-06-22T05:17:32;8.13;;;4.90;;
65737;SDS011;52478;51.844;6.582;2023-06-22T05:19:58;7.82;;;5.00;;
65737;SDS011;52478;51.844;6.582;2023-06-22T05:22:25;9.27;;;5.38;;
65737;SDS011;52478;51.844;6.582;2023-06-22T05:24:51;9.10;;;5.05;;
65737;SDS011;52478;51.844;6.582;2023-06-22T05:27:19;8.55;;;5.13;;
65737;SDS011;52478;51.844;6.582;2023-06-22T05:29:46;8.02;;;4.60;;
65737;SDS011;52478;51.844;6.582;2023-06-22T05:32:12;8.80;;;5.20;;
65737;SDS011;52478;51.844;6.582;2023-06-22T05:34:39;8.57;;;5.10;;
65737;SDS011;52478;51.844;6.582;2023-06-22T05:37:05;8.45;;;5.22;;
65737;SDS011;52478;51.844;6.582;2023-06-22T05:39:34;8.18;;;5.35;;
65737;SDS011;52478;51.844;6.582;2023-06-22T05:42:03;8.02;;;4.63;;
65737;SDS011;52478;51.844;6.582;2023-06-22T05:44:31;8.25;;;5.10;;
65737;SDS011;52478;51.844;6.582;2023-06-22T05:46:58;8.30;;;5.18;;
65737;SDS011;52478;51.844;6.582;2023-06-22T05:49:25;8.75;;;5.28;;
65737;SDS011;52478;51.844;6.582;2023-06-22T05:51:54;7.38;;;4.75;;
65737;SDS011;52478;51.844;6.582;2023-06-22T05:54:22;8.30;;;4.82;;
65737;SDS011;52478;51.844;6.582;2023-06-22T05:56:48;9.15;;;5.00;;
65737;SDS011;52478;51.844;6.582;2023-06-22T05:59:15;8.82;;;5.00;;
65737;SDS011;52478;51.844;6.582;2023-06-22T06:01:43;18.75;;;10.80;;
65737;SDS011;52478;51.844;6.582;2023-06-22T06:04:09;18.33;;;12.25;;
65737;SDS011;52478;51.844;6.582;2023-06-22T06:06:36;17.55;;;12.30;;
65737;SDS011;52478;51.844;6.582;2023-06-22T06:09:03;18.48;;;12.43;;
65737;SDS011;52478;51.844;6.582;2023-06-22T06:11:29;19.67;;;12.88;;
65737;SDS011;52478;51.844;6.582;2023-06-22T06:13:56;19.25;;;13.48;;
65737;SDS011;52478;51.844;6.582;2023-06-22T06:16:23;18.17;;;12.98;;
65737;SDS011;52478;51.844;6.582;2023-06-22T06:18:51;19.08;;;13.48;;
65737;SDS011;52478;51.844;6.582;2023-06-22T06:21:19;17.80;;;12.68;;
65737;SDS011;52478;51.844;6.582;2023-06-22T06:23:46;17.88;;;12.60;;
65737;SDS011;52478;51.844;6.582;2023-06-22T06:26:12;17.75;;;13.25;;
65737;SDS011;52478;51.844;6.582;2023-06-22T06:28:41;19.42;;;12.35;;
65737;SDS011;52478;51.844;6.582;2023-06-22T06:31:08;15.02;;;10.82;;
65737;SDS011;52478;51.844;6.582;2023-06-22T06:33:34;17.77;;;8.98;;
65737;SDS011;52478;51.844;6.582;2023-06-22T06:36:02;11.40;;;7.32;;
65737;SDS011;52478;51.844;6.582;2023-06-22T06:38:29;10.15;;;6.45;;
65737;SDS011;52478;51.844;6.582;2023-06-22T06:40:56;9.95;;;5.72;;
65737;SDS011;52478;51.844;6.582;2023-06-22T06:43:22;9.73;;;5.75;;
65737;SDS011;52478;51.844;6.582;2023-06-22T06:45:49;8.60;;;5.63;;
65737;SDS011;52478;51.844;6.582;2023-06-22T06:48:16;8.93;;;5.47;;
65737;SDS011;52478;51.844;6.582;2023-06-22T06:50:43;8.48;;;5.10;;
65737;SDS011;52478;51.844;6.582;2023-06-22T06:53:11;7.57;;;5.00;;
65737;SDS011;52478;51.844;6.582;2023-06-22T06:55:37;10.50;;;5.32;;
65737;SDS011;52478;51.844;6.582;2023-06-22T06:58:04;10.40;;;4.90;;
65737;SDS011;52478;51.844;6.582;2023-06-22T07:00:32;8.85;;;5.18;;
65737;SDS011;52478;51.844;6.582;2023-06-22T07:03:00;7.85;;;4.70;;
65737;SDS011;52478;51.844;6.582;2023-06-22T07:05:27;7.47;;;4.50;;
65737;SDS011;52478;51.844;6.582;2023-06-22T07:07:54;8.63;;;4.70;;
65737;SDS011;52478;51.844;6.582;2023-06-22T07:10:21;9.13;;;4.20;;
65737;SDS011;52478;51.844;6.582;2023-06-22T07:12:48;9.13;;;4.82;;
65737;SDS011;52478;51.844;6.582;2023-06-22T07:15:14;10.40;;;5.63;;
65737;SDS011;52478;51.844;6.582;2023-06-22T07:17:41;10.38;;;5.15;;
65737;SDS011;52478;51.844;6.582;2023-06-22T07:20:07;10.07;;;5.55;;
65737;SDS011;52478;51.844;6.582;2023-06-22T07:22:36;8.85;;;4.45;;
65737;SDS011;52478;51.844;6.582;2023-06-22T07:25:03;8.77;;;4.47;;
65737;SDS011;52478;51.844;6.582;2023-06-22T07:27:35;8.25;;;4.85;;
65737;SDS011;52478;51.844;6.582;2023-06-22T07:30:03;9.60;;;5.25;;
65737;SDS011;52478;51.844;6.582;2023-06-22T07:32:31;8.73;;;4.50;;
65737;SDS011;52478;51.844;6.582;2023-06-22T07:34:57;7.60;;;4.22;;
65737;SDS011;52478;51.844;6.582;2023-06-22T07:37:24;9.48;;;4.85;;
65737;SDS011;52478;51.844;6.582;2023-06-22T07:39:52;9.50;;;4.72;;
65737;SDS011;52478;51.844;6.582;2023-06-22T07:42:23;7.80;;;4.40;;
65737;SDS011;52478;51.844;6.582;2023-06-22T07:44:51;9.57;;;4.70;;
65737;SDS011;52478;51.844;6.582;2023-06-22T07:47:17;8.45;;;4.22;;
65737;SDS011;52478;51.844;6.582;2023-06-22T07:49:44;8.90;;;5.13;;
65737;SDS011;52478;51.844;6.582;2023-06-22T07:52:10;7.43;;;4.50;;
65737;SDS011;52478;51.844;6.582;2023-06-22T07:57:04;8.15;;;4.22;;
65737;SDS011;52478;51.844;6.582;2023-06-22T07:59:31;9.68;;;4.50;;
65737;SDS011;52478;51.844;6.582;2023-06-22T08:01:58;7.20;;;4.32;;
65737;SDS011;52478;51.844;6.582;2023-06-22T08:04:25;8.25;;;4.40;;
65737;SDS011;52478;51.844;6.582;2023-06-22T08:09:19;8.50;;;5.10;;
65737;SDS011;52478;51.844;6.582;2023-06-22T08:11:45;6.97;;;4.22;;
65737;SDS011;52478;51.844;6.582;2023-06-22T08:14:13;8.18;;;5.00;;
65737;SDS011;52478;51.844;6.582;2023-06-22T08:16:39;8.57;;;4.70;;
65737;SDS011;52478;51.844;6.582;2023-06-22T08:19:08;7.97;;;4.30;;
65737;SDS011;52478;51.844;6.582;2023-06-22T08:21:35;9.00;;;4.13;;
65737;SDS011;52478;51.844;6.582;2023-06-22T08:24:02;7.22;;;4.20;;
65737;SDS011;52478;51.844;6.582;2023-06-22T08:28:55;8.13;;;4.70;;
65737;SDS011;52478;51.844;6.582;2023-06-22T08:31:22;8.30;;;4.28;;
65737;SDS011;52478;51.844;6.582;2023-06-22T08:33:48;9.32;;;5.47;;
65737;SDS011;52478;51.844;6.582;2023-06-22T08:36:16;7.72;;;4.30;;
65737;SDS011;52478;51.844;6.582;2023-06-22T08:38:43;7.95;;;4.35;;
65737;SDS011;52478;51.844;6.582;2023-06-22T08:41:09;6.97;;;4.10;;
65737;SDS011;52478;51.844;6.582;2023-06-22T08:43:36;7.22;;;4.28;;
65737;SDS011;52478;51.844;6.582;2023-06-22T08:46:02;7.97;;;4.68;;
65737;SDS011;52478;51.844;6.582;2023-06-22T08:48:29;7.50;;;4.13;;
65737;SDS011;52478;51.844;6.582;2023-06-22T08:50:55;6.85;;;4.30;;
65737;SDS011;52478;51.844;6.582;2023-06-22T08:53:23;8.30;;;4.00;;
65737;SDS011;52478;51.844;6.582;2023-06-22T08:55:49;7.68;;;4.30;;
65737;SDS011;52478;51.844;6.582;2023-06-22T08:58:16;8.63;;;4.07;;
65737;SDS011;52478;51.844;6.582;2023-06-22T09:00:45;7.32;;;3.92;;
65737;SDS011;52478;51.844;6.582;2023-06-22T09:03:11;7.10;;;4.30;;
65737;SDS011;52478;51.844;6.582;2023-06-22T09:05:38;7.75;;;4.30;;
65737;SDS011;52478;51.844;6.582;2023-06-22T09:08:04;6.72;;;4.10;;
65737;SDS011;52478;51.844;6.582;2023-06-22T09:10:32;6.95;;;3.75;;
65737;SDS011;52478;51.844;6.582;2023-06-22T09:12:58;7.78;;;4.30;;
65737;SDS011;52478;51.844;6.582;2023-06-22T09:15:25;8.05;;;4.40;;
65737;SDS011;52478;51.844;6.582;2023-06-22T09:17:51;7.45;;;4.07;;
65737;SDS011;52478;51.844;6.582;2023-06-22T09:20:19;7.97;;;4.05;;
65737;SDS011;52478;51.844;6.582;2023-06-22T09:22:46;9.15;;;4.15;;
65737;SDS011;52478;51.844;6.582;2023-06-22T09:25:12;7.28;;;4.68;;
65737;SDS011;52478;51.844;6.582;2023-06-22T09:27:40;6.78;;;3.65;;
65737;SDS011;52478;51.844;6.582;2023-06-22T09:30:07;7.38;;;4.07;;
65737;SDS011;52478;51.844;6.582;2023-06-22T09:32:34;7.00;;;4.25;;
65737;SDS011;52478;51.844;6.582;2023-06-22T09:35:01;8.32;;;4.03;;
65737;SDS011;52478;51.844;6.582;2023-06-22T09:37:30;7.70;;;4.05;;
65737;SDS011;52478;51.844;6.582;2023-06-22T09:39:57;6.70;;;3.83;;
65737;SDS011;52478;51.844;6.582;2023-06-22T09:42:23;8.73;;;4.30;;
65737;SDS011;52478;51.844;6.582;2023-06-22T09:44:51;8.05;;;4.57;;
65737;SDS011;52478;51.844;6.582;2023-06-22T09:47:17;8.48;;;4.13;;
65737;SDS011;52478;51.844;6.582;2023-06-22T09:49:44;7.43;;;4.20;;
65737;SDS011;52478;51.844;6.582;2023-06-22T09:52:10;7.10;;;4.28;;
65737;SDS011;52478;51.844;6.582;2023-06-22T09:54:37;7.80;;;4.13;;
65737;SDS011;52478;51.844;6.582;2023-06-22T09:57:04;6.97;;;4.28;;
65737;SDS011;52478;51.844;6.582;2023-06-22T09:59:30;7.38;;;3.95;;
65737;SDS011;52478;51.844;6.582;2023-06-22T10:01:58;6.97;;;3.83;;
65737;SDS011;52478;51.844;6.582;2023-06-22T10:04:24;7.95;;;3.97;;
65737;SDS011;52478;51.844;6.582;2023-06-22T10:09:18;6.55;;;3.88;;
65737;SDS011;52478;51.844;6.582;2023-06-22T10:11:44;7.25;;;4.10;;
65737;SDS011;52478;51.844;6.582;2023-06-22T10:14:10;7.53;;;3.97;;
65737;SDS011;52478;51.844;6.582;2023-06-22T10:16:37;6.88;;;3.92;;
65737;SDS011;52478;51.844;6.582;2023-06-22T10:19:05;7.88;;;4.22;;
65737;SDS011;52478;51.844;6.582;2023-06-22T10:21:31;8.18;;;3.95;;
65737;SDS011;52478;51.844;6.582;2023-06-22T10:23:58;7.45;;;4.05;;
65737;SDS011;52478;51.844;6.582;2023-06-22T10:26:30;7.32;;;4.30;;
65737;SDS011;52478;51.844;6.582;2023-06-22T10:28:57;6.97;;;4.00;;
65737;SDS011;52478;51.844;6.582;2023-06-22T10:31:23;6.93;;;4.28;;
65737;SDS011;52478;51.844;6.582;2023-06-22T10:33:50;7.22;;;3.80;;
65737;SDS011;52478;51.844;6.582;2023-06-22T10:36:17;6.57;;;3.72;;
65737;SDS011;52478;51.844;6.582;2023-06-22T10:38:44;6.60;;;3.72;;
65737;SDS011;52478;51.844;6.582;2023-06-22T10:41:12;7.72;;;3.75;;
65737;SDS011;52478;51.844;6.582;2023-06-22T10:43:38;6.80;;;3.80;;
65737;SDS011;52478;51.844;6.582;2023-06-22T10:46:05;6.22;;;3.65;;
65737;SDS011;52478;51.844;6.582;2023-06-22T10:48:32;7.25;;;4.13;;
65737;SDS011;52478;51.844;6.582;2023-06-22T10:50:59;7.03;;;3.53;;
65737;SDS011;52478;51.844;6.582;2023-06-22T10:53:27;7.10;;;3.72;;
65737;SDS011;52478;51.844;6.582;2023-06-22T10:55:53;6.88;;;3.92;;
65737;SDS011;52478;51.844;6.582;2023-06-22T10:58:20;8.07;;;4.10;;
65737;SDS011;52478;51.844;6.582;2023-06-22T11:00:46;6.63;;;3.88;;
65737;SDS011;52478;51.844;6.582;2023-06-22T11:03:13;6.97;;;3.78;;
65737;SDS011;52478;51.844;6.582;2023-06-22T11:05:40;7.15;;;4.28;;
65737;SDS011;52478;51.844;6.582;2023-06-22T11:10:34;7.47;;;4.15;;
65737;SDS011;52478;51.844;6.582;2023-06-22T11:13:01;7.40;;;3.65;;
65737;SDS011;52478;51.844;6.582;2023-06-22T11:15:29;6.72;;;3.92;;
65737;SDS011;52478;51.844;6.582;2023-06-22T11:17:55;7.70;;;4.38;;
65737;SDS011;52478;51.844;6.582;2023-06-22T11:20:22;6.72;;;3.75;;
65737;SDS011;52478;51.844;6.582;2023-06-22T11:22:48;8.10;;;4.60;;
65737;SDS011;52478;51.844;6.582;2023-06-22T11:25:15;7.43;;;3.92;;
65737;SDS011;52478;51.844;6.582;2023-06-22T11:27:43;6.53;;;3.88;;
65737;SDS011;52478;51.844;6.582;2023-06-22T11:30:09;6.97;;;3.72;;
65737;SDS011;52478;51.844;6.582;2023-06-22T11:35:03;7.25;;;4.18;;
65737;SDS011;52478;51.844;6.582;2023-06-22T11:37:29;8.63;;;4.65;;
65737;SDS011;52478;51.844;6.582;2023-06-22T11:39:56;7.30;;;4.03;;
65737;SDS011;52478;51.844;6.582;2023-06-22T11:42:23;7.20;;;4.00;;
65737;SDS011;52478;51.844;6.582;2023-06-22T11:47:18;7.38;;;3.80;;
65737;SDS011;52478;51.844;6.582;2023-06-22T11:49:44;7.50;;;4.20;;
65737;SDS011;52478;51.844;6.582;2023-06-22T11:52:11;7.47;;;4.35;;
65737;SDS011;52478;51.844;6.582;2023-06-22T11:54:38;8.13;;;4.50;;
65737;SDS011;52478;51.844;6.582;2023-06-22T11:57:04;7.63;;;4.05;;
65737;SDS011;52478;51.844;6.582;2023-06-22T11:59:31;6.85;;;3.78;;
65737;SDS011;52478;51.844;6.582;2023-06-22T12:01:59;7.43;;;4.00;;
65737;SDS011;52478;51.844;6.582;2023-06-22T12:04:25;7.00;;;3.70;;
65737;SDS011;52478;51.844;6.582;2023-06-22T12:06:52;6.90;;;4.15;;
65737;SDS011;52478;51.844;6.582;2023-06-22T12:09:18;7.00;;;4.15;;
65737;SDS011;52478;51.844;6.582;2023-06-22T12:11:45;7.53;;;4.50;;
65737;SDS011;52478;51.844;6.582;2023-06-22T12:14:11;9.07;;;5.10;;
65737;SDS011;52478;51.844;6.582;2023-06-22T12:16:38;7.50;;;4.40;;
65737;SDS011;52478;51.844;6.582;2023-06-22T12:19:06;7.82;;;4.40;;
65737;SDS011;52478;51.844;6.582;2023-06-22T12:21:32;8.20;;;4.60;;
65737;SDS011;52478;51.844;6.582;2023-06-22T12:23:59;8.50;;;4.53;;
65737;SDS011;52478;51.844;6.582;2023-06-22T12:26:25;8.85;;;5.35;;
65737;SDS011;52478;51.844;6.582;2023-06-22T12:28:52;9.02;;;5.20;;
65737;SDS011;52478;51.844;6.582;2023-06-22T12:31:18;8.18;;;5.13;;
65737;SDS011;52478;51.844;6.582;2023-06-22T12:33:45;8.13;;;4.95;;
65737;SDS011;52478;51.844;6.582;2023-06-22T12:36:12;9.77;;;5.82;;
65737;SDS011;52478;51.844;6.582;2023-06-22T12:38:39;12.30;;;7.45;;
65737;SDS011;52478;51.844;6.582;2023-06-22T12:41:05;14.40;;;9.27;;
65737;SDS011;52478;51.844;6.582;2023-06-22T12:43:32;12.20;;;8.30;;
65737;SDS011;52478;51.844;6.582;2023-06-22T12:45:58;13.43;;;8.88;;
65737;SDS011;52478;51.844;6.582;2023-06-22T12:48:25;13.38;;;8.13;;
65737;SDS011;52478;51.844;6.582;2023-06-22T12:53:20;13.32;;;8.27;;
65737;SDS011;52478;51.844;6.582;2023-06-22T12:55:47;12.65;;;7.82;;
65737;SDS011;52478;51.844;6.582;2023-06-22T12:58:14;12.82;;;8.38;;
65737;SDS011;52478;51.844;6.582;2023-06-22T13:00:40;11.93;;;7.78;;
65737;SDS011;52478;51.844;6.582;2023-06-22T13:03:07;11.23;;;7.57;;
65737;SDS011;52478;51.844;6.582;2023-06-22T13:05:33;12.75;;;8.35;;
65737;SDS011;52478;51.844;6.582;2023-06-22T13:08:01;15.02;;;7.45;;
65737;SDS011;52478;51.844;6.582;2023-06-22T13:10:29;11.68;;;7.90;;
65737;SDS011;52478;51.844;6.582;2023-06-22T13:12:55;11.93;;;7.15;;
65737;SDS011;52478;51.844;6.582;2023-06-22T13:15:25;13.65;;;10.18;;
65737;SDS011;52478;51.844;6.582;2023-06-22T13:17:52;13.52;;;8.80;;
65737;SDS011;52478;51.844;6.582;2023-06-22T13:20:19;13.65;;;9.00;;
65737;SDS011;52478;51.844;6.582;2023-06-22T13:22:46;12.95;;;8.15;;
65737;SDS011;52478;51.844;6.582;2023-06-22T13:25:12;13.70;;;9.98;;
65737;SDS011;52478;51.844;6.582;2023-06-22T13:27:45;13.20;;;9.55;;
65737;SDS011;52478;51.844;6.582;2023-06-22T13:30:11;12.95;;;8.32;;
65737;SDS011;52478;51.844;6.582;2023-06-22T13:32:39;11.25;;;7.18;;
65737;SDS011;52478;51.844;6.582;2023-06-22T13:35:07;11.45;;;8.07;;
65737;SDS011;52478;51.844;6.582;2023-06-22T13:37:34;13.45;;;9.10;;
65737;SDS011;52478;51.844;6.582;2023-06-22T13:40:00;13.43;;;9.07;;
65737;SDS011;52478;51.844;6.582;2023-06-22T13:42:30;12.55;;;8.50;;
65737;SDS011;52478;51.844;6.582;2023-06-22T13:44:57;13.00;;;9.13;;
65737;SDS011;52478;51.844;6.582;2023-06-22T13:47:24;12.90;;;8.70;;
65737;SDS011;52478;51.844;6.582;2023-06-22T13:49:50;13.77;;;9.65;;
65737;SDS011;52478;51.844;6.582;2023-06-22T13:52:17;13.13;;;9.35;;
65737;SDS011;52478;51.844;6.582;2023-06-22T13:54:43;14.35;;;9.55;;
65737;SDS011;52478;51.844;6.582;2023-06-22T13:57:10;12.40;;;8.00;;
65737;SDS011;52478;51.844;6.582;2023-06-22T13:59:36;13.35;;;9.15;;
65737;SDS011;52478;51.844;6.582;2023-06-22T14:02:04;12.77;;;9.02;;
65737;SDS011;52478;51.844;6.582;2023-06-22T14:04:31;12.93;;;8.48;;
65737;SDS011;52478;51.844;6.582;2023-06-22T14:06:58;13.45;;;9.32;;
65737;SDS011;52478;51.844;6.582;2023-06-22T14:09:24;14.02;;;9.82;;
65737;SDS011;52478;51.844;6.582;2023-06-22T14:11:51;14.57;;;10.25;;
65737;SDS011;52478;51.844;6.582;2023-06-22T14:14:17;12.52;;;9.55;;
65737;SDS011;52478;51.844;6.582;2023-06-22T14:16:44;12.95;;;9.50;;
65737;SDS011;52478;51.844;6.582;2023-06-22T14:19:12;12.10;;;8.68;;
65737;SDS011;52478;51.844;6.582;2023-06-22T14:21:38;12.88;;;9.18;;
65737;SDS011;52478;51.844;6.582;2023-06-22T14:24:05;13.80;;;10.05;;
65737;SDS011;52478;51.844;6.582;2023-06-22T14:26:31;15.07;;;9.85;;
65737;SDS011;52478;51.844;6.582;2023-06-22T14:28:58;12.02;;;8.88;;
65737;SDS011;52478;51.844;6.582;2023-06-22T14:31:24;14.15;;;9.35;;
65737;SDS011;52478;51.844;6.582;2023-06-22T14:33:51;15.90;;;10.55;;
65737;SDS011;52478;51.844;6.582;2023-06-22T14:36:19;13.48;;;9.70;;
65737;SDS011;52478;51.844;6.582;2023-06-22T14:38:45;14.35;;;10.18;;
65737;SDS011;52478;51.844;6.582;2023-06-22T14:41:12;15.27;;;10.38;;
65737;SDS011;52478;51.844;6.582;2023-06-22T14:43:43;14.73;;;9.90;;
65737;SDS011;52478;51.844;6.582;2023-06-22T14:46:10;13.73;;;9.68;;
65737;SDS011;52478;51.844;6.582;2023-06-22T14:48:36;15.25;;;10.60;;
65737;SDS011;52478;51.844;6.582;2023-06-22T14:51:03;14.07;;;10.32;;
65737;SDS011;52478;51.844;6.582;2023-06-22T14:53:30;14.93;;;9.73;;
65737;SDS011;52478;51.844;6.582;2023-06-22T14:55:57;13.70;;;8.65;;
65737;SDS011;52478;51.844;6.582;2023-06-22T14:58:26;13.10;;;8.65;;
65737;SDS011;52478;51.844;6.582;2023-06-22T15:00:52;12.10;;;8.48;;
65737;SDS011;52478;51.844;6.582;2023-06-22T15:03:19;14.07;;;9.63;;
65737;SDS011;52478;51.844;6.582;2023-06-22T15:05:50;12.68;;;9.07;;
65737;SDS011;52478;51.844;6.582;2023-06-22T15:08:17;13.48;;;8.85;;
65737;SDS011;52478;51.844;6.582;2023-06-22T15:10:44;11.52;;;7.60;;